Time;durP1;ratioP1;P1;durP2;ratioP2;P2;SDS_P1;SDS_P2;PMS_P1;PMS_P2;Temp;Humidity;BMP_temperature;BMP_pressure;BME280_temperature;BME280_humidity;BME280_pressure;Samples;Min_cycle;Max_cycle;Signal;HPM_P1;HPM_P2
2023/12/14 00:03:10;;;;;;;61.80;28.10;;;;;;;6.66;75.47;97676.36;234461;210;148919;-58
2023/12/14 00:08:13;;;;;;;57.20;27.40;;;;;;;6.64;75.59;97679.66;234462;211;139579;-58
2023/12/14 00:13:16;;;;;;;56.40;27.90;;;;;;;6.61;75.50;97681.91;234085;212;137749;-57
2023/12/14 00:18:20;;;;;;;65.60;29.70;;;;;;;6.65;75.62;97688.39;234194;213;146471;-56
2023/12/14 00:23:23;;;;;;;62.00;27.90;;;;;;;6.69;75.52;97693.25;234525;207;139704;-57
2023/12/14 00:28:27;;;;;;;61.20;28.70;;;;;;;6.69;75.51;97695.36;234525;213;137454;-58
2023/12/14 00:33:35;;;;;;;55.90;27.70;;;;;;;6.66;75.35;97697.83;233795;207;148290;-56
2023/12/14 00:38:39;;;;;;;56.00;27.80;;;;;;;6.62;75.34;97695.10;234030;212;139725;-56
2023/12/14 00:43:42;;;;;;;55.10;27.80;;;;;;;6.62;75.45;97704.80;234375;212;137001;-58
2023/12/14 00:48:45;;;;;;;55.30;26.60;;;;;;;6.60;75.53;97712.15;234484;207;149170;-57
2023/12/14 00:53:48;;;;;;;58.60;27.00;;;;;;;6.60;75.58;97721.16;234037;212;140589;-57
2023/12/14 00:58:52;;;;;;;57.90;26.90;;;;;;;6.63;75.59;97725.84;234484;212;138482;-59
2023/12/14 01:03:55;;;;;;;54.80;28.10;;;;;;;6.70;75.42;97727.19;234530;212;147350;-57
2023/12/14 01:08:58;;;;;;;54.80;27.60;;;;;;;6.76;75.15;97727.29;233228;207;140405;-57
2023/12/14 01:14:02;;;;;;;54.70;26.90;;;;;;;6.75;74.89;97729.25;234531;207;137810;-56
2023/12/14 01:19:08;;;;;;;53.70;26.40;;;;;;;6.73;74.86;97735.23;232893;211;147479;-56
2023/12/14 01:24:46;;;;;;;55.80;28.00;;;;;;;6.72;75.13;97736.95;235219;208;603910;-58
2023/12/14 01:29:49;;;;;;;56.10;26.90;;;;;;;6.71;75.21;97731.16;236120;205;136845;-58
2023/12/14 01:34:53;;;;;;;55.60;26.50;;;;;;;6.67;75.27;97727.19;237815;197;136494;-57
2023/12/14 01:39:56;;;;;;;52.90;25.80;;;;;;;6.62;75.29;97727.67;237355;201;136944;-58
2023/12/14 01:44:59;;;;;;;56.90;26.60;;;;;;;6.60;75.38;97728.02;237681;198;136466;-58
2023/12/14 01:50:03;;;;;;;54.60;27.40;;;;;;;6.59;75.30;97722.97;237425;201;137006;-58
2023/12/14 01:55:06;;;;;;;56.20;26.40;;;;;;;6.57;75.47;97723.10;237444;204;137219;-57
2023/12/14 02:00:22;;;;;;;56.00;27.00;;;;;;;6.61;75.30;97722.13;237497;197;136233;-57
2023/12/14 02:05:25;;;;;;;55.60;26.50;;;;;;;6.57;75.37;97724.16;235565;205;137918;-63
2023/12/14 02:10:32;;;;;;;57.80;26.90;;;;;;;6.60;75.51;97715.48;237101;200;136558;31
2023/12/14 02:15:36;;;;;;;52.40;25.40;;;;;;;6.59;75.40;97715.75;236591;205;136973;-58
2023/12/14 02:20:39;;;;;;;54.40;26.50;;;;;;;6.54;75.46;97724.58;236958;202;136804;-58
2023/12/14 02:25:42;;;;;;;49.90;24.60;;;;;;;6.53;75.85;97732.19;237174;198;138020;-57
2023/12/14 02:30:45;;;;;;;52.00;23.90;;;;;;;6.53;75.83;97746.15;237088;199;137903;-58
2023/12/14 02:35:49;;;;;;;52.10;25.70;;;;;;;6.58;75.79;97757.40;237074;199;137674;-57
2023/12/14 02:40:52;;;;;;;49.00;23.60;;;;;;;6.65;75.73;97764.86;237074;199;138016;-57
2023/12/14 02:46:01;;;;;;;46.50;22.60;;;;;;;6.68;75.62;97771.40;236397;198;136602;-54
2023/12/14 02:51:06;;;;;;;44.80;21.90;;;;;;;6.70;75.40;97770.04;236494;199;137701;-55
2023/12/14 02:56:10;;;;;;;36.40;19.70;;;;;;;6.68;75.21;97775.44;237163;198;137270;-57
2023/12/14 03:01:14;;;;;;;35.90;18.50;;;;;;;6.62;75.29;97784.41;237229;201;137723;-56
2023/12/14 03:06:17;;;;;;;34.10;18.50;;;;;;;6.59;75.21;97789.90;237134;206;136929;-56
2023/12/14 03:11:23;;;;;;;33.50;17.90;;;;;;;6.56;75.30;97792.39;236679;203;136969;-57
2023/12/14 03:16:26;;;;;;;36.40;19.70;;;;;;;6.54;75.34;97791.65;237271;204;137699;-57
2023/12/14 03:21:29;;;;;;;36.10;19.40;;;;;;;6.56;75.36;97795.27;237216;202;137790;-59
2023/12/14 03:26:33;;;;;;;39.00;19.80;;;;;;;6.62;75.52;97801.89;237143;199;137617;-57
2023/12/14 03:31:36;;;;;;;37.10;19.60;;;;;;;6.68;75.28;97806.47;237194;199;137299;-57
2023/12/14 03:36:39;;;;;;;32.50;17.20;;;;;;;6.71;75.07;97809.55;237220;199;136896;-57
2023/12/14 03:41:43;;;;;;;29.30;16.20;;;;;;;6.72;74.82;97812.50;237136;199;137010;-57
2023/12/14 03:46:46;;;;;;;79.10;49.60;;;;;;;6.73;75.25;97821.27;237116;199;138839;-56
2023/12/14 03:51:50;;;;;;;36.50;20.30;;;;;;;6.77;75.07;97827.50;237264;199;136317;-58
2023/12/14 03:56:53;;;;;;;178.40;118.60;;;;;;;6.78;74.97;97832.21;237188;199;136264;-56
2023/12/14 04:01:56;;;;;;;40.70;22.70;;;;;;;6.79;74.75;97838.66;236897;199;137427;-57
2023/12/14 04:06:59;;;;;;;30.90;18.40;;;;;;;6.80;74.63;97846.69;237158;199;136136;-58
2023/12/14 04:12:03;;;;;;;33.50;18.50;;;;;;;6.87;74.50;97859.30;237168;202;137910;-58
2023/12/14 04:17:07;;;;;;;32.20;17.70;;;;;;;6.84;73.98;97871.48;237225;199;138045;-58
2023/12/14 04:22:10;;;;;;;32.80;18.90;;;;;;;6.80;74.05;97882.13;237389;206;137398;-58
2023/12/14 04:27:15;;;;;;;33.90;18.80;;;;;;;6.78;74.05;97888.61;237201;206;137277;-57
2023/12/14 04:32:18;;;;;;;35.50;20.00;;;;;;;6.73;74.12;97893.52;237060;203;138423;-58
2023/12/14 04:37:21;;;;;;;41.80;20.30;;;;;;;6.68;74.35;97903.75;237222;199;137442;-55
2023/12/14 04:42:24;;;;;;;49.40;29.80;;;;;;;6.60;74.56;97912.49;237114;206;137049;-55
2023/12/14 04:47:28;;;;;;;45.00;23.50;;;;;;;6.64;75.09;97923.91;237184;206;137247;-56
2023/12/14 04:52:32;;;;;;;42.30;19.70;;;;;;;6.64;74.79;97928.45;237323;199;137414;-57
2023/12/14 04:57:36;;;;;;;33.90;18.90;;;;;;;6.57;74.86;97935.95;236896;205;138865;-56
2023/12/14 05:02:39;;;;;;;41.70;20.40;;;;;;;6.58;74.97;97942.57;237187;198;137954;-58
2023/12/14 05:07:42;;;;;;;39.10;21.00;;;;;;;6.61;75.05;97943.11;237161;199;138378;-58
2023/12/14 05:12:46;;;;;;;36.70;19.70;;;;;;;6.66;75.08;97943.31;237206;198;137342;-56
2023/12/14 05:17:49;;;;;;;36.40;19.00;;;;;;;6.66;74.87;97948.98;237212;199;137368;-57
2023/12/14 05:22:52;;;;;;;33.10;19.10;;;;;;;6.66;74.84;97952.85;237222;199;136644;-58
2023/12/14 05:27:55;;;;;;;30.30;17.70;;;;;;;6.62;74.78;97961.56;236170;198;137259;-56
2023/12/14 05:32:58;;;;;;;29.30;16.10;;;;;;;6.54;74.93;97972.66;236779;199;137102;-57
2023/12/14 05:38:02;;;;;;;28.20;16.00;;;;;;;6.48;75.17;97980.58;237230;202;136726;-58
2023/12/14 05:43:05;;;;;;;24.30;15.10;;;;;;;6.44;75.51;97986.09;237205;198;137184;-58
2023/12/14 05:48:08;;;;;;;25.20;15.00;;;;;;;6.44;75.45;97992.47;237204;199;137451;-58
2023/12/14 05:53:11;;;;;;;24.60;15.40;;;;;;;6.48;75.55;97992.77;237133;198;141040;-58
2023/12/14 05:58:15;;;;;;;29.80;17.40;;;;;;;6.54;75.40;97998.52;237317;199;139543;-57
2023/12/14 06:03:18;;;;;;;30.30;18.60;;;;;;;6.61;75.12;98008.51;237141;206;137435;-57
2023/12/14 06:08:21;;;;;;;35.30;19.40;;;;;;;6.67;75.03;98020.12;236669;203;137236;-57
2023/12/14 06:13:25;;;;;;;36.00;20.10;;;;;;;6.67;74.77;98035.07;236610;206;157944;-56
2023/12/14 06:18:29;;;;;;;56.20;34.60;;;;;;;6.64;74.65;98040.36;236159;199;137378;-58
2023/12/14 06:23:33;;;;;;;35.30;20.30;;;;;;;6.61;74.83;98047.27;237145;198;136307;-57
2023/12/14 06:28:36;;;;;;;33.70;19.70;;;;;;;6.57;74.80;98051.36;237300;206;136698;-60
2023/12/14 06:33:40;;;;;;;37.00;20.10;;;;;;;6.51;75.11;98060.22;237288;199;137108;-57
2023/12/14 06:38:44;;;;;;;32.20;19.70;;;;;;;6.52;75.20;98063.19;236993;199;137161;-57
2023/12/14 06:43:47;;;;;;;36.70;21.30;;;;;;;6.57;75.14;98071.51;237114;199;137463;-57
2023/12/14 06:48:51;;;;;;;38.30;22.70;;;;;;;6.63;75.07;98078.32;237158;198;137164;-57
2023/12/14 06:53:54;;;;;;;37.10;23.00;;;;;;;6.69;74.96;98085.91;237213;198;136825;-58
2023/12/14 06:58:57;;;;;;;38.50;22.60;;;;;;;6.70;74.62;98086.05;237227;198;137955;-57
2023/12/14 07:04:03;;;;;;;37.30;22.30;;;;;;;6.68;74.51;98092.30;237224;201;136424;-61
2023/12/14 07:09:06;;;;;;;37.40;23.10;;;;;;;6.65;74.41;98101.64;237209;199;136762;-60
2023/12/14 07:14:09;;;;;;;40.80;23.40;;;;;;;6.61;74.52;98105.05;237172;198;137583;-60
2023/12/14 07:19:13;;;;;;;38.10;22.40;;;;;;;6.59;74.52;98114.39;236655;199;137104;-61
2023/12/14 07:24:16;;;;;;;39.50;22.90;;;;;;;6.56;74.63;98119.48;237163;198;137404;-61
2023/12/14 07:29:20;;;;;;;38.30;21.40;;;;;;;6.57;74.91;98126.97;237195;206;137970;-61
2023/12/14 07:34:24;;;;;;;36.20;23.00;;;;;;;6.62;74.91;98132.13;237248;198;137569;-60
2023/12/14 07:39:27;;;;;;;41.50;23.10;;;;;;;6.71;74.92;98138.86;237163;198;137194;-60
2023/12/14 07:44:31;;;;;;;39.30;22.60;;;;;;;6.76;74.64;98152.45;237095;202;137511;-60
2023/12/14 07:49:34;;;;;;;36.10;21.70;;;;;;;6.77;74.50;98157.17;237024;198;138326;-59
2023/12/14 07:54:38;;;;;;;39.20;23.10;;;;;;;6.76;74.31;98166.92;237139;198;137181;-61
2023/12/14 07:59:41;;;;;;;39.30;22.40;;;;;;;6.72;74.29;98178.41;237158;198;137291;-60
2023/12/14 08:04:44;;;;;;;42.10;22.30;;;;;;;6.72;74.45;98179.15;237138;198;137570;-61
2023/12/14 08:09:47;;;;;;;41.50;23.50;;;;;;;6.73;74.44;98185.23;237320;205;137481;-60
2023/12/14 08:14:50;;;;;;;35.00;20.60;;;;;;;6.73;74.25;98199.70;237182;198;136479;-59
2023/12/14 08:19:53;;;;;;;34.30;20.90;;;;;;;6.75;74.35;98206.98;237162;199;138219;-60
2023/12/14 08:24:57;;;;;;;37.20;21.80;;;;;;;6.80;74.24;98214.41;237178;199;138866;-59
2023/12/14 08:30:00;;;;;;;38.40;22.60;;;;;;;6.87;74.19;98215.58;237076;205;137272;-62
2023/12/14 08:35:04;;;;;;;38.90;22.90;;;;;;;6.93;74.02;98219.33;237204;198;137490;-60
2023/12/14 08:40:08;;;;;;;37.00;22.70;;;;;;;6.95;74.12;98227.65;237243;202;137436;-60
2023/12/14 08:45:11;;;;;;;38.20;21.80;;;;;;;6.95;74.08;98238.89;237188;198;138513;-61
2023/12/14 08:50:15;;;;;;;37.80;23.20;;;;;;;6.95;74.16;98249.73;237171;205;137175;-60
2023/12/14 08:55:19;;;;;;;40.50;24.20;;;;;;;6.93;74.26;98259.52;237354;198;136587;-60
2023/12/14 09:00:22;;;;;;;40.70;23.50;;;;;;;6.95;74.26;98264.48;237183;198;137058;-59
2023/12/14 09:05:26;;;;;;;34.40;21.40;;;;;;;6.97;74.15;98270.20;237201;205;137056;-59
2023/12/14 09:10:30;;;;;;;36.00;21.40;;;;;;;7.03;74.13;98269.13;237313;198;138316;-60
2023/12/14 09:15:34;;;;;;;36.80;22.40;;;;;;;7.12;73.85;98275.66;237186;199;136855;-60
2023/12/14 09:20:37;;;;;;;36.80;22.50;;;;;;;7.14;73.57;98281.48;237187;198;136454;-59
2023/12/14 09:25:41;;;;;;;38.50;23.00;;;;;;;7.14;73.46;98293.36;237125;199;137363;-59
2023/12/14 09:30:44;;;;;;;38.80;22.50;;;;;;;7.12;72.95;98299.44;236990;201;137304;-60
2023/12/14 09:35:47;;;;;;;36.40;22.50;;;;;;;7.13;72.77;98304.00;237234;205;138638;-61
2023/12/14 09:40:51;;;;;;;38.00;21.20;;;;;;;7.08;72.84;98308.30;236681;199;136597;-60
2023/12/14 09:45:55;;;;;;;37.50;22.60;;;;;;;7.04;72.66;98311.90;237295;199;137195;-59
2023/12/14 09:50:58;;;;;;;34.60;20.20;;;;;;;7.01;72.66;98310.71;237222;198;138053;-60
2023/12/14 09:56:02;;;;;;;34.70;21.00;;;;;;;6.98;72.77;98313.02;236758;198;137351;-59
2023/12/14 10:01:26;;;;;;;37.00;20.70;;;;;;;6.92;72.87;98317.80;237182;205;137361;-59
2023/12/14 10:06:29;;;;;;;33.20;19.40;;;;;;;6.92;72.79;98321.65;237228;197;138131;-61
2023/12/14 10:11:33;;;;;;;38.20;21.30;;;;;;;6.98;73.02;98322.36;237137;199;137165;-58
2023/12/14 10:16:36;;;;;;;35.40;20.20;;;;;;;7.04;72.83;98326.53;237124;205;137201;-60
2023/12/14 10:21:40;;;;;;;65.50;41.10;;;;;;;7.19;73.32;98324.77;236985;203;137095;-59
2023/12/14 10:26:48;;;;;;;34.50;19.50;;;;;;;7.31;72.59;98335.15;237122;198;136616;-60
2023/12/14 10:31:53;;;;;;;35.90;21.20;;;;;;;7.30;72.19;98338.73;237212;198;137050;-60
2023/12/14 10:36:56;;;;;;;33.70;20.70;;;;;;;7.33;72.54;98342.32;237172;199;136630;-61
2023/12/14 10:42:03;;;;;;;34.10;20.80;;;;;;;7.26;72.10;98350.67;237134;198;137011;-60
2023/12/14 10:47:21;;;;;;;33.50;19.40;;;;;;;7.16;72.13;98356.91;236463;198;137894;-59
2023/12/14 10:52:25;;;;;;;34.80;21.20;;;;;;;7.08;72.17;98362.84;236861;198;137034;-61
2023/12/14 10:57:29;;;;;;;185.60;105.30;;;;;;;7.08;72.73;98365.50;237142;198;138193;-63
2023/12/14 11:02:40;;;;;;;43.10;25.60;;;;;;;7.17;73.01;98369.20;237096;198;138265;-61
2023/12/14 11:07:54;;;;;;;40.20;22.70;;;;;;;7.22;72.60;98373.44;236639;199;136869;-58
2023/12/14 11:13:03;;;;;;;36.90;21.50;;;;;;;7.23;72.54;98377.48;236391;199;136934;-60
2023/12/14 11:18:09;;;;;;;36.20;22.00;;;;;;;7.21;72.52;98377.91;236807;206;137801;-58
2023/12/14 11:23:25;;;;;;;37.30;21.10;;;;;;;7.17;72.84;98379.07;237187;199;137199;-59
2023/12/14 11:28:34;;;;;;;38.40;22.30;;;;;;;7.16;72.90;98385.27;237278;205;136531;-59
2023/12/14 11:33:38;;;;;;;37.70;21.80;;;;;;;7.20;73.07;98389.46;237139;198;137084;-60
2023/12/14 11:38:48;;;;;;;41.80;22.50;;;;;;;7.22;73.04;98389.91;237180;198;137047;-59
2023/12/14 11:43:53;;;;;;;38.00;20.70;;;;;;;7.23;72.81;98387.90;236671;199;136716;-58
2023/12/14 11:48:57;;;;;;;36.00;20.90;;;;;;;7.21;72.92;98391.70;237084;199;138021;-59
2023/12/14 11:54:02;;;;;;;37.50;21.00;;;;;;;7.18;72.85;98394.89;237123;197;138165;-60
2023/12/14 11:59:05;;;;;;;34.20;20.10;;;;;;;7.23;73.01;98395.14;237751;201;137663;-60
2023/12/14 12:04:10;;;;;;;35.20;20.50;;;;;;;7.24;72.84;98392.40;237902;200;136655;-58
2023/12/14 12:09:13;;;;;;;32.60;20.50;;;;;;;7.19;73.09;98399.06;237160;200;136756;-61
2023/12/14 12:14:17;;;;;;;34.50;20.30;;;;;;;7.18;73.27;98409.73;237677;201;138015;-59
2023/12/14 12:19:20;;;;;;;34.20;20.10;;;;;;;7.13;73.20;98417.55;237396;204;138152;-60
2023/12/14 12:24:24;;;;;;;35.20;20.50;;;;;;;7.15;73.36;98422.92;236731;201;138123;-58
2023/12/14 12:29:30;;;;;;;32.80;18.80;;;;;;;7.17;73.63;98429.35;237751;204;137087;-60
2023/12/14 12:34:33;;;;;;;31.30;18.40;;;;;;;7.20;73.64;98431.80;237151;204;137497;-57
2023/12/14 12:39:37;;;;;;;27.60;17.60;;;;;;;7.27;73.26;98433.30;236674;201;137319;-60
2023/12/14 12:44:41;;;;;;;29.00;18.30;;;;;;;7.30;73.38;98437.77;237787;197;137487;-61
2023/12/14 12:49:44;;;;;;;27.60;16.50;;;;;;;7.34;73.27;98443.69;237789;204;136938;-61
2023/12/14 12:54:48;;;;;;;29.10;17.60;;;;;;;7.36;73.01;98448.02;237801;204;137818;-60
2023/12/14 12:59:51;;;;;;;27.80;17.60;;;;;;;7.32;73.24;98457.91;237740;197;137815;-61
2023/12/14 13:04:54;;;;;;;29.80;18.00;;;;;;;7.32;73.35;98465.86;237679;197;136757;-57
2023/12/14 13:09:57;;;;;;;28.90;17.20;;;;;;;7.24;73.56;98477.80;237836;204;137318;-59
2023/12/14 13:15:00;;;;;;;26.00;16.70;;;;;;;7.21;73.89;98486.06;237734;201;136861;-62
2023/12/14 13:20:06;;;;;;;26.20;16.50;;;;;;;7.27;73.90;98489.42;237711;204;137819;-60
2023/12/14 13:25:10;;;;;;;28.60;17.60;;;;;;;7.34;73.67;98490.63;237809;204;138557;-60
2023/12/14 13:30:17;;;;;;;23.40;16.00;;;;;;;7.42;73.49;98499.35;237756;201;136662;-60
2023/12/14 13:35:22;;;;;;;26.90;16.60;;;;;;;7.47;73.19;98501.39;237768;198;137655;-59
2023/12/14 13:40:25;;;;;;;23.30;16.70;;;;;;;7.50;73.10;98510.70;237862;204;136990;-58
2023/12/14 13:45:30;;;;;;;23.10;16.00;;;;;;;7.51;73.04;98521.56;237784;204;137958;-60
2023/12/14 13:50:34;;;;;;;25.40;15.60;;;;;;;7.50;73.00;98532.95;237654;198;137304;-58
2023/12/14 13:55:37;;;;;;;24.80;15.70;;;;;;;7.42;73.18;98545.60;237676;204;136668;-59
2023/12/14 14:00:42;;;;;;;23.60;15.30;;;;;;;7.36;73.28;98560.77;237588;201;138403;-61
2023/12/14 14:05:45;;;;;;;24.90;15.10;;;;;;;7.32;73.41;98568.00;237694;197;137294;-60
2023/12/14 14:10:48;;;;;;;23.30;14.70;;;;;;;7.29;73.40;98577.18;237610;196;138594;-60
2023/12/14 14:15:52;;;;;;;24.60;16.00;;;;;;;7.27;73.60;98583.84;237961;196;136886;-60
2023/12/14 14:20:55;;;;;;;25.80;16.80;;;;;;;7.31;73.81;98587.13;237697;200;137617;-59
2023/12/14 14:25:58;;;;;;;26.40;16.80;;;;;;;7.31;73.63;98594.20;237754;201;137917;-60
2023/12/14 14:31:02;;;;;;;22.90;15.70;;;;;;;7.31;73.66;98602.67;236979;201;138011;-61
2023/12/14 14:36:08;;;;;;;28.30;17.30;;;;;;;7.32;73.82;98614.42;236955;196;137001;-58
2023/12/14 14:41:11;;;;;;;29.00;17.20;;;;;;;7.35;73.89;98624.31;237725;197;138963;-61
2023/12/14 14:46:14;;;;;;;28.90;16.80;;;;;;;7.35;73.99;98634.20;237769;201;137369;-58
2023/12/14 14:51:17;;;;;;;29.80;18.30;;;;;;;7.32;74.05;98649.73;237628;204;138236;-57
2023/12/14 14:56:20;;;;;;;29.00;18.50;;;;;;;7.27;74.28;98658.33;237656;197;137997;-58
2023/12/14 15:01:24;;;;;;;28.40;18.10;;;;;;;7.25;74.45;98664.42;236211;201;138423;-60
2023/12/14 15:06:27;;;;;;;36.50;21.80;;;;;;;7.34;74.79;98664.95;237471;204;138510;-57
2023/12/14 15:11:30;;;;;;;36.00;21.30;;;;;;;7.42;74.36;98668.94;237661;197;137098;-57
2023/12/14 15:16:34;;;;;;;36.60;22.90;;;;;;;7.41;74.11;98670.41;237772;204;137516;-58
2023/12/14 15:21:38;;;;;;;33.80;21.90;;;;;;;7.38;74.31;98673.39;237723;204;136576;-59
2023/12/14 15:26:42;;;;;;;39.00;23.30;;;;;;;7.34;74.38;98677.68;237161;200;137712;-59
2023/12/14 15:31:45;;;;;;;38.00;22.80;;;;;;;7.30;74.58;98677.38;237508;197;136761;-58
2023/12/14 15:36:48;;;;;;;38.70;22.90;;;;;;;7.28;74.62;98692.13;237225;201;136708;-58
2023/12/14 15:41:51;;;;;;;38.00;22.20;;;;;;;7.26;74.75;98697.52;237764;201;137105;-58
2023/12/14 15:46:55;;;;;;;484.30;350.50;;;;;;;7.27;74.81;98704.52;237699;204;138248;-57
2023/12/14 15:51:58;;;;;;;42.50;25.90;;;;;;;7.42;75.18;98707.59;237738;204;138988;-59
2023/12/14 15:57:01;;;;;;;42.50;24.40;;;;;;;7.45;74.70;98711.49;237211;204;139289;-58
2023/12/14 16:02:05;;;;;;;40.10;25.40;;;;;;;7.42;74.54;98718.70;237536;204;137430;-58
2023/12/14 16:07:08;;;;;;;40.50;23.90;;;;;;;7.37;74.56;98725.02;237103;204;136877;-57
2023/12/14 16:12:11;;;;;;;40.00;24.50;;;;;;;7.33;74.50;98729.63;237721;204;137625;-58
2023/12/14 16:17:15;;;;;;;43.60;26.50;;;;;;;7.26;74.71;98731.95;236932;201;137919;-57
2023/12/14 16:22:18;;;;;;;45.00;26.50;;;;;;;7.23;74.84;98740.56;237806;204;137601;-57
2023/12/14 16:27:21;;;;;;;45.90;25.20;;;;;;;7.23;74.99;98753.24;237663;204;137289;-57
2023/12/14 16:32:25;;;;;;;41.20;25.40;;;;;;;7.26;75.00;98764.75;236832;197;137319;-56
2023/12/14 16:40:23;;;;;;;81.50;52.80;;;;;;;7.56;76.06;98771.77;235811;203;577056;-58
2023/12/14 16:45:26;;;;;;;45.90;27.90;;;;;;;7.64;75.02;98784.63;236005;209;137839;-57
2023/12/14 16:50:30;;;;;;;47.20;26.70;;;;;;;7.58;74.36;98788.63;237434;197;136672;-58
2023/12/14 16:55:33;;;;;;;46.00;25.60;;;;;;;7.48;74.57;98793.43;237409;197;136618;-57
2023/12/14 17:00:37;;;;;;;42.60;26.00;;;;;;;7.39;74.67;98806.80;236912;205;136634;-57
2023/12/14 17:05:41;;;;;;;45.50;26.20;;;;;;;7.33;74.69;98808.33;236278;205;136403;-59
2023/12/14 17:10:44;;;;;;;44.60;25.20;;;;;;;7.28;74.89;98814.44;237505;205;137185;-58
2023/12/14 17:15:47;;;;;;;43.40;25.70;;;;;;;7.25;74.99;98823.21;236908;201;138500;-58
2023/12/14 17:20:51;;;;;;;41.80;25.40;;;;;;;7.25;75.07;98829.01;237152;198;137640;-59
2023/12/14 17:25:54;;;;;;;42.20;26.50;;;;;;;7.26;75.03;98838.67;236408;205;136393;-59
2023/12/14 17:30:57;;;;;;;42.20;25.70;;;;;;;7.27;75.04;98838.08;237772;200;136413;-58
2023/12/14 17:36:01;;;;;;;45.00;26.60;;;;;;;7.25;74.96;98846.17;237692;203;136550;-60
2023/12/14 17:41:10;;;;;;;44.70;27.00;;;;;;;7.22;75.00;98847.38;237831;203;136301;-59
2023/12/14 17:46:14;;;;;;;42.30;25.20;;;;;;;7.20;75.13;98856.66;237427;203;137138;-58
2023/12/14 17:51:18;;;;;;;41.90;24.50;;;;;;;7.16;75.27;98862.30;237783;200;136783;-59
2023/12/14 17:56:21;;;;;;;52.70;30.10;;;;;;;7.10;75.36;98871.95;237772;201;137569;-58
2023/12/14 18:01:24;;;;;;;42.50;25.10;;;;;;;7.12;75.54;98881.93;237764;196;139306;-60
2023/12/14 18:06:27;;;;;;;43.00;26.10;;;;;;;7.18;75.50;98890.27;237721;204;137105;-59
2023/12/14 18:11:31;;;;;;;44.00;26.60;;;;;;;7.23;75.27;98896.72;237819;204;136431;-58
2023/12/14 18:16:38;;;;;;;45.70;27.40;;;;;;;7.23;75.27;98903.05;237867;196;136445;-59
2023/12/14 18:21:44;;;;;;;43.30;27.10;;;;;;;7.25;75.31;98908.08;237863;203;138387;-59
2023/12/14 18:34:20;;;;;;;43.80;26.10;;;;;;;7.60;76.93;98920.41;229131;207;734359;-59
2023/12/14 18:39:24;;;;;;;35.10;22.90;;;;;;;7.88;75.31;98924.97;230488;209;136775;-58
2023/12/14 18:44:27;;;;;;;38.30;25.50;;;;;;;7.75;74.29;98933.07;230657;208;137320;-58
2023/12/14 18:49:31;;;;;;;45.30;26.60;;;;;;;7.60;74.23;98943.35;231375;201;148155;-59
2023/12/14 18:54:37;;;;;;;;;;;;;;;7.50;74.32;98952.35;231745;202;137025;-57
2023/12/14 18:59:41;;;;;;;33.70;22.20;;;;;;;7.41;74.48;98961.64;231902;204;132047;-58
2023/12/14 19:04:45;;;;;;;36.40;23.00;;;;;;;7.38;74.48;98968.30;231551;200;149598;-57
2023/12/14 19:09:48;;;;;;;36.70;23.00;;;;;;;7.32;74.45;98976.01;230789;207;136545;-55
2023/12/14 19:14:52;;;;;;;41.80;26.00;;;;;;;7.25;74.52;98977.96;231720;198;136617;-56
2023/12/14 19:19:57;;;;;;;46.40;29.80;;;;;;;7.32;76.35;98985.73;231851;199;147642;-56
2023/12/14 19:25:01;;;;;;;27.50;19.00;;;;;;;7.50;74.63;98991.55;231779;198;139420;-56
2023/12/14 19:30:06;;;;;;;23.60;16.50;;;;;;;7.43;73.75;98997.20;231824;199;136931;-58
2023/12/14 19:35:09;;;;;;;21.60;14.30;;;;;;;7.39;73.31;98998.46;230794;206;149667;-63
2023/12/14 19:40:13;;;;;;;20.90;14.30;;;;;;;7.29;73.03;99001.73;231506;203;137112;-58
2023/12/14 19:45:17;;;;;;;65.70;46.40;;;;;;;7.28;74.00;99010.27;231759;199;139091;-58
2023/12/14 19:50:20;;;;;;;25.10;14.90;;;;;;;7.37;73.52;99017.96;231484;206;149686;-59
2023/12/14 19:55:23;;;;;;;20.40;14.30;;;;;;;7.28;73.14;99031.95;231654;197;138092;-58
2023/12/14 20:00:26;;;;;;;18.10;12.70;;;;;;;7.19;73.03;99037.35;231461;198;136727;-56
2023/12/14 20:05:30;;;;;;;18.30;12.70;;;;;;;7.11;72.74;99043.93;231778;206;149524;-56
2023/12/14 20:10:33;;;;;;;19.40;12.90;;;;;;;7.08;72.83;99058.20;231943;198;137562;-57
2023/12/14 20:15:36;;;;;;;22.20;14.50;;;;;;;7.15;73.31;99068.41;232368;198;139470;-56
2023/12/14 20:20:40;;;;;;;20.00;13.90;;;;;;;7.24;72.81;99070.45;232035;204;150028;-58
2023/12/14 20:25:43;;;;;;;28.80;20.70;;;;;;;7.18;72.23;99081.86;231942;198;136470;-57
2023/12/14 20:31:15;;;;;;;29.40;19.00;;;;;;;7.21;72.68;99084.73;229647;214;707924;-55
2023/12/14 20:36:18;;;;;;;23.20;15.00;;;;;;;7.17;72.12;99097.10;230601;205;137027;-58
2023/12/14 20:41:22;;;;;;;24.20;15.20;;;;;;;7.08;72.12;99101.91;231896;199;137422;-57
2023/12/14 20:46:25;;;;;;;22.80;14.50;;;;;;;6.99;72.25;99110.48;231345;198;147874;-58
2023/12/14 20:51:29;;;;;;;21.40;14.50;;;;;;;6.86;72.61;99123.21;231897;198;136887;-59
2023/12/14 20:56:32;;;;;;;23.50;14.70;;;;;;;6.83;72.98;99135.01;230884;198;138055;-58
2023/12/14 21:01:36;;;;;;;19.50;13.30;;;;;;;6.86;73.03;99137.70;231816;198;148719;-58
2023/12/14 21:06:39;;;;;;;22.30;14.00;;;;;;;6.85;72.82;99140.89;232378;203;137277;-57
2023/12/14 21:11:43;;;;;;;20.90;14.10;;;;;;;6.80;72.89;99143.76;232364;203;136898;-58
2023/12/14 21:16:50;;;;;;;20.30;13.60;;;;;;;6.75;73.03;99149.45;232385;203;147531;-58
2023/12/14 21:21:57;;;;;;;18.60;12.00;;;;;;;6.75;73.14;99151.38;231681;200;136457;-57
2023/12/14 21:32:24;;;;;;;9.30;7.30;;;;;;;6.64;72.09;99171.30;231663;203;150961;-59
2023/12/14 21:37:28;;;;;;;12.60;8.00;;;;;;;6.57;72.05;99179.68;231782;201;136510;-57
2023/12/14 21:42:31;;;;;;;11.60;8.00;;;;;;;6.51;71.98;99187.18;232512;204;136213;-57
2023/12/14 21:47:34;;;;;;;12.20;8.10;;;;;;;6.43;72.20;99195.47;232438;204;149605;-58
2023/12/14 21:52:38;;;;;;;14.90;9.90;;;;;;;6.41;72.44;99204.89;231961;200;139682;-57
2023/12/14 21:57:42;;;;;;;14.20;9.60;;;;;;;6.45;72.27;99214.05;231747;204;137911;-57
2023/12/14 22:02:45;;;;;;;12.90;9.20;;;;;;;6.48;72.22;99222.60;232056;204;151214;-55
2023/12/14 22:07:49;;;;;;;13.00;9.90;;;;;;;6.49;72.09;99229.39;232322;201;137378;-58
2023/12/14 22:12:52;;;;;;;13.90;10.60;;;;;;;6.49;71.92;99240.52;231701;200;137003;-58
2023/12/14 22:18:00;;;;;;;16.60;11.00;;;;;;;6.48;72.02;99252.00;232423;196;149594;-57
2023/12/14 22:23:04;;;;;;;17.70;11.90;;;;;;;6.37;71.83;99260.39;232180;201;137029;-56
2023/12/14 22:28:07;;;;;;;20.50;12.60;;;;;;;6.31;72.14;99270.33;232046;204;136393;-58
2023/12/14 22:33:10;;;;;;;19.40;12.50;;;;;;;6.31;72.34;99276.50;232061;201;150555;-58
2023/12/14 22:38:14;;;;;;;21.40;13.70;;;;;;;6.26;72.18;99287.27;232383;203;136757;-57
2023/12/14 22:43:17;;;;;;;22.00;14.10;;;;;;;6.25;72.32;99294.70;232468;200;136951;-57
2023/12/14 22:48:20;;;;;;;24.60;14.50;;;;;;;6.32;72.46;99300.94;232233;203;150689;-57
2023/12/14 22:53:24;;;;;;;22.30;15.20;;;;;;;6.37;72.48;99307.61;232279;203;137333;-58
2023/12/14 22:58:31;;;;;;;39.10;24.60;;;;;;;6.38;72.44;99314.61;232125;200;137516;-57
2023/12/14 23:03:34;;;;;;;26.30;16.50;;;;;;;6.35;72.61;99319.84;232521;200;150306;-58
2023/12/14 23:08:37;;;;;;;28.00;16.30;;;;;;;6.33;72.83;99327.52;231428;198;136859;-55
2023/12/14 23:13:41;;;;;;;27.10;16.70;;;;;;;6.24;73.03;99328.91;231970;200;138948;-55
2023/12/14 23:18:44;;;;;;;29.70;15.80;;;;;;;6.19;73.41;99336.00;232294;197;149367;-56
2023/12/14 23:23:49;;;;;;;29.30;17.30;;;;;;;6.12;73.61;99345.44;232195;204;137195;-55
2023/12/14 23:28:52;;;;;;;21.90;12.20;;;;;;;6.07;73.89;99349.33;231432;204;138345;-56
2023/12/14 23:33:56;;;;;;;27.40;15.40;;;;;;;6.07;73.93;99352.15;231730;204;149734;-56